createdAt,value
2018-05-26T00:01:13.176Z,17.10
2018-05-26T00:03:40.861Z,17.20
2018-05-26T00:06:08.626Z,17.20
2018-05-26T00:08:36.399Z,17.20
2018-05-26T00:11:04.112Z,17.30
2018-05-26T00:13:31.819Z,17.30
2018-05-26T00:15:59.612Z,17.30
2018-05-26T00:18:27.582Z,17.40
2018-05-26T00:20:56.373Z,17.40
2018-05-26T00:23:25.919Z,17.50
2018-05-26T00:25:55.323Z,17.40
2018-05-26T00:28:23.977Z,17.40
2018-05-26T00:30:52.643Z,17.40
2018-05-26T00:33:23.724Z,17.40
2018-05-26T00:35:52.445Z,17.30
2018-05-26T00:38:22.639Z,17.30
2018-05-26T00:40:52.135Z,17.20
2018-05-26T00:43:23.062Z,17.20
2018-05-26T00:45:52.578Z,17.20
2018-05-26T00:48:21.294Z,17.10
2018-05-26T00:50:49.024Z,17.10
2018-05-26T00:53:16.736Z,17.00
2018-05-26T00:55:44.390Z,16.90
2018-05-26T00:58:12.138Z,16.80
2018-05-26T01:00:40.627Z,16.90
2018-05-26T01:03:08.307Z,16.90
2018-05-26T01:05:36.770Z,17.00
2018-05-26T01:08:04.482Z,16.90
2018-05-26T01:10:32.210Z,17.00
2018-05-26T01:12:59.935Z,17.00
2018-05-26T01:15:27.571Z,17.00
2018-05-26T01:17:55.248Z,17.10
2018-05-26T01:20:22.975Z,17.10
2018-05-26T01:22:50.684Z,17.10
2018-05-26T01:25:18.348Z,17.10
2018-05-26T01:27:46.125Z,17.00
2018-05-26T01:30:13.809Z,16.90
2018-05-26T01:32:41.653Z,16.80
2018-05-26T01:35:09.307Z,16.80
2018-05-26T01:37:37.215Z,16.80
2018-05-26T01:40:04.967Z,16.90
2018-05-26T01:42:32.751Z,16.90
2018-05-26T01:45:00.477Z,16.80
2018-05-26T01:47:28.314Z,16.70
2018-05-26T01:49:55.996Z,16.70
2018-05-26T01:52:23.671Z,16.70
2018-05-26T01:54:51.402Z,16.70
2018-05-26T01:57:19.256Z,16.80
2018-05-26T01:59:46.984Z,16.70
2018-05-26T02:02:14.645Z,16.70
2018-05-26T02:04:44.092Z,16.70
2018-05-26T02:07:13.401Z,16.70
2018-05-26T02:09:41.057Z,16.60
2018-05-26T02:12:09.191Z,16.70
2018-05-26T02:14:38.006Z,16.70
2018-05-26T02:17:05.895Z,16.70
2018-05-26T02:19:33.608Z,16.70
2018-05-26T02:22:01.331Z,16.80
2018-05-26T02:24:31.772Z,16.70
2018-05-26T02:26:59.841Z,16.70
2018-05-26T02:29:28.566Z,16.70
2018-05-26T02:31:57.369Z,16.70
2018-05-26T02:34:25.287Z,16.70
2018-05-26T02:36:53.566Z,16.70
2018-05-26T02:39:22.059Z,16.70
2018-05-26T02:41:49.810Z,16.70
2018-05-26T02:44:17.559Z,16.70
2018-05-26T02:46:45.276Z,16.70
2018-05-26T02:49:12.941Z,16.70
2018-05-26T02:51:40.669Z,16.80
2018-05-26T02:54:08.355Z,16.70
2018-05-26T02:56:36.105Z,16.70
2018-05-26T02:59:03.821Z,16.70
2018-05-26T03:01:31.661Z,16.80
2018-05-26T03:03:58.836Z,16.80
2018-05-26T03:06:32.090Z,16.60
2018-05-26T03:09:05.479Z,16.60
2018-05-26T03:11:38.956Z,16.60
2018-05-26T03:14:12.167Z,16.60
2018-05-26T03:16:40.891Z,16.60
2018-05-26T03:19:08.591Z,16.60
2018-05-26T03:21:36.302Z,16.70
2018-05-26T03:24:04.116Z,16.60
2018-05-26T03:26:31.860Z,16.60
2018-05-26T03:28:59.515Z,16.60
2018-05-26T03:31:27.235Z,16.60
2018-05-26T03:33:54.925Z,16.60
2018-05-26T03:36:23.476Z,16.60
2018-05-26T03:38:51.179Z,16.60
2018-05-26T03:41:19.687Z,16.50
2018-05-26T03:43:47.388Z,16.50
2018-05-26T03:46:15.146Z,16.50
2018-05-26T03:48:43.103Z,16.50
2018-05-26T03:51:10.882Z,16.50
2018-05-26T03:53:38.571Z,16.50
2018-05-26T03:56:18.185Z,16.50
2018-05-26T03:58:57.578Z,16.50
2018-05-26T04:01:25.272Z,16.50
2018-05-26T04:03:53.781Z,16.50
2018-05-26T04:06:21.517Z,16.50
2018-05-26T04:08:49.216Z,16.50
2018-05-26T04:11:16.949Z,16.50
2018-05-26T04:13:44.667Z,16.50
2018-05-26T04:16:12.384Z,16.50
2018-05-26T04:18:40.202Z,16.50
2018-05-26T04:21:07.886Z,16.60
2018-05-26T04:23:36.447Z,16.60
2018-05-26T04:26:04.181Z,16.60
2018-05-26T04:28:31.909Z,16.70
2018-05-26T04:31:00.383Z,16.70
2018-05-26T04:33:28.079Z,16.70
2018-05-26T04:35:55.767Z,16.80
2018-05-26T04:38:23.539Z,16.80
2018-05-26T04:40:51.278Z,16.80
2018-05-26T04:43:18.955Z,16.90
2018-05-26T04:45:46.877Z,16.90
2018-05-26T04:48:15.271Z,17.00
2018-05-26T04:50:42.946Z,17.00
2018-05-26T04:53:10.619Z,17.00
2018-05-26T04:55:38.266Z,17.10
2018-05-26T04:58:06.004Z,17.10
2018-05-26T05:00:33.862Z,17.10
2018-05-26T05:03:02.328Z,17.20
2018-05-26T05:05:29.982Z,17.20
2018-05-26T05:07:57.691Z,17.30
2018-05-26T05:10:25.404Z,17.30
2018-05-26T05:12:53.120Z,17.30
2018-05-26T05:15:20.803Z,17.40
2018-05-26T05:17:48.580Z,17.50
2018-05-26T05:20:16.323Z,17.50
2018-05-26T05:22:44.206Z,17.50
2018-05-26T05:25:12.048Z,17.60
2018-05-26T05:27:39.744Z,17.60
2018-05-26T05:30:07.422Z,17.70
2018-05-26T05:32:35.165Z,17.70
2018-05-26T05:35:02.923Z,17.80
2018-05-26T05:37:30.645Z,17.80
2018-05-26T05:39:58.368Z,17.90
2018-05-26T05:42:26.084Z,17.90
2018-05-26T05:44:53.838Z,18.00
2018-05-26T05:47:21.478Z,18.10
2018-05-26T05:49:49.328Z,18.10
2018-05-26T05:52:17.086Z,18.20
2018-05-26T05:54:44.875Z,18.30
2018-05-26T05:57:12.562Z,18.30
2018-05-26T05:59:40.218Z,18.30
2018-05-26T06:02:09.065Z,18.30
2018-05-26T06:04:37.695Z,18.50
2018-05-26T06:07:05.882Z,18.50
2018-05-26T06:09:33.660Z,18.60
2018-05-26T06:12:01.438Z,18.70
2018-05-26T06:14:29.173Z,18.80
2018-05-26T06:16:56.928Z,19.00
2018-05-26T06:19:24.701Z,19.10
2018-05-26T06:21:52.459Z,19.10
2018-05-26T06:24:20.158Z,19.20
2018-05-26T06:26:47.836Z,19.30
2018-05-26T06:29:15.547Z,19.30
2018-05-26T06:31:43.240Z,19.40
2018-05-26T06:34:10.945Z,19.60
2018-05-26T06:36:38.945Z,19.70
2018-05-26T06:39:06.732Z,19.80
2018-05-26T06:41:34.483Z,19.90
2018-05-26T06:44:02.179Z,20.10
2018-05-26T06:46:29.898Z,20.20
2018-05-26T06:48:57.589Z,20.30
2018-05-26T06:51:25.370Z,20.30
2018-05-26T06:53:53.066Z,20.40
2018-05-26T06:56:21.273Z,20.60
2018-05-26T06:58:49.053Z,20.70
2018-05-26T07:01:17.053Z,20.70
2018-05-26T07:03:44.792Z,20.90
2018-05-26T07:06:13.568Z,21.00
2018-05-26T07:08:41.373Z,21.10
2018-05-26T07:11:09.259Z,21.20
2018-05-26T07:13:37.839Z,21.40
2018-05-26T07:16:06.929Z,21.30
2018-05-26T07:18:34.714Z,21.40
2018-05-26T07:21:02.402Z,21.50
2018-05-26T07:23:30.114Z,21.70
2018-05-26T07:25:57.800Z,21.70
2018-05-26T07:28:26.262Z,21.90
2018-05-26T07:30:54.082Z,21.90
2018-05-26T07:33:21.893Z,21.80
2018-05-26T07:35:49.661Z,21.90
2018-05-26T07:38:17.426Z,21.90
2018-05-26T07:40:45.186Z,22.10
2018-05-26T07:43:13.023Z,22.20
2018-05-26T07:45:40.736Z,22.30
2018-05-26T07:48:08.389Z,22.40
2018-05-26T07:50:36.858Z,22.60
2018-05-26T07:53:04.695Z,22.70
2018-05-26T07:55:32.407Z,22.80
2018-05-26T07:58:00.139Z,22.90
2018-05-26T08:00:27.907Z,23.00
2018-05-26T08:02:55.604Z,23.10
2018-05-26T08:05:23.345Z,23.20
2018-05-26T08:07:51.819Z,23.40
2018-05-26T08:10:20.210Z,23.40
2018-05-26T08:12:47.886Z,23.50
2018-05-26T08:15:15.624Z,23.60
2018-05-26T08:17:44.105Z,24.00
2018-05-26T08:20:11.779Z,24.00
2018-05-26T08:22:39.484Z,24.20
2018-05-26T08:25:07.287Z,24.30
2018-05-26T08:27:35.039Z,24.40
2018-05-26T08:30:02.809Z,24.50
2018-05-26T08:32:30.569Z,24.50
2018-05-26T08:34:58.244Z,24.40
2018-05-26T08:37:26.213Z,24.20
2018-05-26T08:39:53.978Z,24.40
2018-05-26T08:42:21.778Z,24.60
2018-05-26T08:44:49.603Z,24.80
2018-05-26T08:47:17.435Z,25.00
2018-05-26T08:49:45.213Z,25.10
2018-05-26T08:52:12.988Z,25.20
2018-05-26T08:54:40.782Z,25.30
2018-05-26T08:57:08.751Z,25.50
2018-05-26T08:59:36.688Z,25.60
2018-05-26T09:02:04.849Z,25.80
2018-05-26T09:04:32.619Z,25.90
2018-05-26T09:07:00.473Z,26.10
2018-05-26T09:09:29.656Z,26.10
2018-05-26T09:11:57.351Z,26.10
2018-05-26T09:14:26.126Z,26.00
2018-05-26T09:16:53.964Z,26.10
2018-05-26T09:19:22.577Z,26.20
2018-05-26T09:21:50.283Z,26.40
2018-05-26T09:24:18.096Z,26.30
2018-05-26T09:26:45.831Z,26.10
2018-05-26T09:29:14.257Z,25.80
2018-05-26T09:31:42.073Z,25.80
2018-05-26T09:34:10.523Z,26.20
2018-05-26T09:36:38.300Z,26.20
2018-05-26T09:39:06.045Z,26.50
2018-05-26T09:41:33.991Z,26.70
2018-05-26T09:44:01.712Z,26.90
2018-05-26T09:46:29.417Z,27.10
2018-05-26T09:48:58.523Z,27.10
2018-05-26T09:51:26.295Z,26.90
2018-05-26T09:56:29.628Z,26.50
2018-05-26T09:58:57.871Z,26.70
2018-05-26T10:01:26.420Z,26.90
2018-05-26T10:03:54.160Z,26.80
2018-05-26T10:06:23.079Z,26.60
2018-05-26T10:08:55.607Z,26.70
2018-05-26T10:11:24.156Z,26.90
2018-05-26T10:13:52.046Z,27.20
2018-05-26T10:16:19.860Z,27.20
2018-05-26T10:18:47.765Z,27.00
2018-05-26T10:21:15.501Z,27.10
2018-05-26T10:23:43.386Z,27.00
2018-05-26T10:26:11.263Z,27.10
2018-05-26T10:28:39.143Z,27.30
2018-05-26T10:31:06.859Z,27.20
2018-05-26T10:33:35.507Z,27.20
2018-05-26T10:36:04.091Z,27.70
2018-05-26T10:38:31.914Z,27.60
2018-05-26T10:40:59.759Z,28.00
2018-05-26T10:43:28.356Z,28.70
2018-05-26T10:46:07.856Z,28.70
2018-05-26T10:48:35.724Z,28.90
2018-05-26T10:51:03.492Z,29.10
2018-05-26T10:53:31.985Z,29.30
2018-05-26T10:55:59.809Z,29.40
2018-05-26T10:58:27.692Z,29.00
2018-05-26T11:00:55.505Z,28.60
2018-05-26T11:03:23.188Z,28.30
2018-05-26T11:05:50.886Z,28.30
2018-05-26T11:08:18.601Z,28.10
2018-05-26T11:10:46.334Z,27.90
2018-05-26T11:13:13.994Z,27.60
2018-05-26T11:15:42.455Z,27.10
2018-05-26T11:18:11.168Z,27.10
2018-05-26T11:20:38.957Z,26.90
2018-05-26T11:23:06.868Z,26.70
2018-05-26T11:25:34.767Z,26.60
2018-05-26T11:28:03.470Z,26.40
2018-05-26T11:30:41.996Z,26.80
2018-05-26T11:33:12.069Z,27.40
2018-05-26T11:35:40.103Z,27.50
2018-05-26T11:39:18.777Z,28.50
2018-05-26T11:41:46.792Z,31.30
2018-05-26T11:44:14.541Z,31.20
2018-05-26T11:46:42.361Z,30.80
2018-05-26T11:49:10.123Z,30.00
2018-05-26T11:51:37.903Z,31.20
2018-05-26T11:54:05.136Z,35.30
2018-05-26T11:56:32.347Z,36.40
2018-05-26T11:58:59.537Z,34.90
2018-05-26T12:01:26.828Z,34.20
2018-05-26T12:03:54.032Z,32.90
2018-05-26T12:06:21.218Z,32.20
2018-05-26T12:08:48.488Z,32.70
2018-05-26T12:11:16.482Z,32.60
2018-05-26T12:13:43.728Z,32.50
2018-05-26T12:30:33.326Z,32.30
2018-05-26T12:36:11.948Z,32.00
2018-05-26T12:38:41.408Z,31.70
2018-05-26T12:41:11.367Z,31.30
2018-05-26T12:43:39.317Z,31.10
2018-05-26T12:46:08.166Z,30.80
2018-05-26T12:48:36.052Z,30.80
2018-05-26T12:51:04.071Z,30.50
2018-05-26T12:53:32.122Z,30.50
2018-05-26T12:56:03.345Z,30.30
2018-05-26T12:58:31.654Z,30.30
2018-05-26T13:01:00.904Z,30.10
2018-05-26T13:03:28.727Z,30.20
2018-05-26T13:05:56.639Z,30.10
2018-05-26T13:08:25.245Z,30.00
2018-05-26T13:10:54.167Z,30.00
2018-05-26T13:13:22.301Z,29.90
2018-05-26T13:15:50.126Z,30.00
2018-05-26T13:18:20.288Z,29.90
2018-05-26T13:20:54.215Z,29.70
2018-05-26T13:23:27.571Z,29.70
2018-05-26T13:26:05.107Z,29.60
2018-05-26T13:31:10.496Z,29.40
2018-05-26T13:33:50.730Z,29.40
2018-05-26T14:33:10.648Z,28.70
2018-05-26T14:41:39.842Z,28.20
2018-05-26T15:14:07.413Z,28.50
2018-05-26T17:03:53.021Z,26.10
2018-05-26T17:06:32.460Z,26.00
2018-05-26T17:09:32.307Z,25.90
2018-05-26T17:46:59.921Z,25.50
2018-05-26T18:17:45.256Z,25.00
2018-05-26T18:20:35.525Z,24.90
2018-05-26T18:29:14.934Z,24.80
2018-05-26T18:31:49.336Z,24.70
2018-05-26T18:34:42.196Z,24.60
2018-05-26T18:47:48.354Z,24.40
2018-05-26T19:17:15.330Z,23.90
2018-05-26T19:20:16.166Z,23.90
2018-05-26T19:23:33.251Z,23.90
2018-05-26T19:28:42.732Z,23.80
2018-05-26T19:31:13.575Z,23.70
2018-05-26T19:33:43.312Z,23.70
2018-05-26T19:36:12.104Z,23.70
2018-05-26T19:38:41.227Z,23.70
2018-05-26T19:41:09.344Z,23.60
2018-05-26T19:43:37.275Z,23.60
2018-05-26T19:46:10.346Z,23.60
2018-05-26T19:48:38.607Z,23.50
2018-05-26T19:51:10.436Z,23.40
2018-05-26T19:53:39.396Z,23.40
2018-05-26T19:56:20.486Z,23.40
2018-05-26T19:58:50.324Z,23.30
2018-05-26T20:01:19.009Z,23.20
2018-05-26T20:03:48.460Z,23.20
2018-05-26T20:06:16.756Z,23.10
2018-05-26T20:08:45.211Z,23.00
2018-05-26T20:11:24.356Z,22.90
2018-05-26T20:19:24.117Z,22.70
2018-05-26T20:25:50.754Z,22.60
2018-05-26T21:24:53.192Z,23.80
2018-05-26T21:27:20.986Z,24.20
2018-05-26T21:30:01.628Z,23.70
2018-05-26T21:32:33.694Z,23.40
2018-05-26T21:35:21.998Z,23.40
2018-05-26T23:01:28.046Z,19.70
2018-05-26T23:06:35.511Z,19.60
2018-05-26T23:09:03.467Z,19.60
2018-05-26T23:11:31.431Z,19.50
2018-05-26T23:13:59.270Z,19.40
2018-05-26T23:16:27.100Z,19.30
2018-05-26T23:18:54.968Z,19.20
2018-05-26T23:21:22.763Z,19.10
2018-05-26T23:23:51.484Z,19.00
2018-05-26T23:26:20.885Z,19.00
2018-05-26T23:28:49.178Z,19.00
2018-05-26T23:31:17.099Z,18.90
2018-05-26T23:33:44.861Z,18.80
2018-05-26T23:36:12.653Z,18.80
2018-05-26T23:38:40.647Z,18.70
2018-05-26T23:41:08.434Z,18.70
2018-05-26T23:43:36.508Z,18.60
2018-05-26T23:46:04.284Z,18.60
2018-05-26T23:48:31.961Z,18.50
2018-05-26T23:50:59.696Z,18.50
2018-05-26T23:53:27.453Z,18.50
2018-05-26T23:55:55.167Z,18.40
2018-05-26T23:58:22.838Z,18.40
